sensor_id;sensor_type;location;lat;lon;timestamp;P1;durP1;ratioP1;P2;durP2;ratioP2
7255;SDS011;3669;49.200;9.242;2022-09-14T00:00:46;2.63;;;2.40;;
7255;SDS011;3669;49.200;9.242;2022-09-14T00:03:14;2.63;;;2.42;;
7255;SDS011;3669;49.200;9.242;2022-09-14T00:05:41;2.70;;;2.50;;
7255;SDS011;3669;49.200;9.242;2022-09-14T00:08:09;2.80;;;2.60;;
7255;SDS011;3669;49.200;9.242;2022-09-14T00:10:37;3.33;;;2.85;;
7255;SDS011;3669;49.200;9.242;2022-09-14T00:13:05;2.90;;;2.70;;
7255;SDS011;3669;49.200;9.242;2022-09-14T00:15:37;2.58;;;2.38;;
7255;SDS011;3669;49.200;9.242;2022-09-14T00:18:04;2.92;;;2.63;;
7255;SDS011;3669;49.200;9.242;2022-09-14T00:20:32;2.70;;;2.50;;
7255;SDS011;3669;49.200;9.242;2022-09-14T00:23:00;2.75;;;2.55;;
7255;SDS011;3669;49.200;9.242;2022-09-14T00:25:27;2.55;;;2.35;;
7255;SDS011;3669;49.200;9.242;2022-09-14T00:27:55;2.78;;;2.50;;
7255;SDS011;3669;49.200;9.242;2022-09-14T00:30:23;2.95;;;2.45;;
7255;SDS011;3669;49.200;9.242;2022-09-14T00:32:50;3.20;;;2.45;;
7255;SDS011;3669;49.200;9.242;2022-09-14T00:35:18;3.55;;;2.53;;
7255;SDS011;3669;49.200;9.242;2022-09-14T00:37:47;2.88;;;2.40;;
7255;SDS011;3669;49.200;9.242;2022-09-14T00:40:15;2.67;;;2.42;;
7255;SDS011;3669;49.200;9.242;2022-09-14T00:42:42;2.63;;;2.42;;
7255;SDS011;3669;49.200;9.242;2022-09-14T00:45:18;21.50;;;20.50;;
7255;SDS011;3669;49.200;9.242;2022-09-14T00:47:47;21.63;;;20.75;;
7255;SDS011;3669;49.200;9.242;2022-09-14T00:50:15;25.73;;;24.63;;
7255;SDS011;3669;49.200;9.242;2022-09-14T00:52:43;17.77;;;16.88;;
7255;SDS011;3669;49.200;9.242;2022-09-14T00:55:13;9.38;;;8.80;;
7255;SDS011;3669;49.200;9.242;2022-09-14T00:57:44;6.28;;;5.80;;
7255;SDS011;3669;49.200;9.242;2022-09-14T01:00:12;3.20;;;2.97;;
7255;SDS011;3669;49.200;9.242;2022-09-14T01:02:40;2.42;;;2.25;;
7255;SDS011;3669;49.200;9.242;2022-09-14T01:05:07;2.50;;;2.30;;
7255;SDS011;3669;49.200;9.242;2022-09-14T01:15:30;3.30;;;2.55;;
7255;SDS011;3669;49.200;9.242;2022-09-14T01:20:57;2.85;;;2.65;;
7255;SDS011;3669;49.200;9.242;2022-09-14T01:26:07;2.70;;;2.38;;
7255;SDS011;3669;49.200;9.242;2022-09-14T01:31:18;2.85;;;2.40;;
7255;SDS011;3669;49.200;9.242;2022-09-14T01:33:50;2.60;;;2.40;;
7255;SDS011;3669;49.200;9.242;2022-09-14T01:36:19;2.70;;;2.50;;
7255;SDS011;3669;49.200;9.242;2022-09-14T01:38:47;2.58;;;2.40;;
7255;SDS011;3669;49.200;9.242;2022-09-14T01:41:16;3.00;;;2.80;;
7255;SDS011;3669;49.200;9.242;2022-09-14T01:43:53;3.60;;;2.50;;
7255;SDS011;3669;49.200;9.242;2022-09-14T01:46:29;2.80;;;2.30;;
7255;SDS011;3669;49.200;9.242;2022-09-14T01:51:34;2.60;;;2.40;;
7255;SDS011;3669;49.200;9.242;2022-09-14T01:54:09;3.50;;;2.45;;
7255;SDS011;3669;49.200;9.242;2022-09-14T01:56:40;3.10;;;2.53;;
7255;SDS011;3669;49.200;9.242;2022-09-14T01:59:14;3.28;;;2.50;;
7255;SDS011;3669;49.200;9.242;2022-09-14T02:01:45;3.85;;;3.53;;
7255;SDS011;3669;49.200;9.242;2022-09-14T02:04:14;2.58;;;2.38;;
7255;SDS011;3669;49.200;9.242;2022-09-14T02:06:43;2.50;;;2.30;;
7255;SDS011;3669;49.200;9.242;2022-09-14T02:09:11;3.05;;;2.60;;
7255;SDS011;3669;49.200;9.242;2022-09-14T02:11:39;4.47;;;2.60;;
7255;SDS011;3669;49.200;9.242;2022-09-14T02:14:07;2.60;;;2.40;;
7255;SDS011;3669;49.200;9.242;2022-09-14T02:16:34;5.88;;;5.55;;
7255;SDS011;3669;49.200;9.242;2022-09-14T02:19:01;14.25;;;13.63;;
7255;SDS011;3669;49.200;9.242;2022-09-14T02:21:29;36.47;;;34.58;;
7255;SDS011;3669;49.200;9.242;2022-09-14T02:23:57;30.20;;;28.73;;
7255;SDS011;3669;49.200;9.242;2022-09-14T02:26:24;24.50;;;23.30;;
7255;SDS011;3669;49.200;9.242;2022-09-14T02:28:52;9.38;;;8.77;;
7255;SDS011;3669;49.200;9.242;2022-09-14T02:39:13;4.65;;;3.03;;
7255;SDS011;3669;49.200;9.242;2022-09-14T02:47:49;4.22;;;2.80;;
7255;SDS011;3669;49.200;9.242;2022-09-14T02:50:35;3.53;;;3.15;;
7255;SDS011;3669;49.200;9.242;2022-09-14T02:53:23;13.88;;;13.15;;
7255;SDS011;3669;49.200;9.242;2022-09-14T02:58:42;13.65;;;13.02;;
7255;SDS011;3669;49.200;9.242;2022-09-14T03:01:11;7.25;;;6.70;;
7255;SDS011;3669;49.200;9.242;2022-09-14T03:06:03;17.50;;;16.50;;
7255;SDS011;3669;49.200;9.242;2022-09-14T03:08:30;3.63;;;3.22;;
7255;SDS011;3669;49.200;9.242;2022-09-14T03:10:59;4.15;;;2.80;;
7255;SDS011;3669;49.200;9.242;2022-09-14T03:16:15;13.43;;;12.52;;
7255;SDS011;3669;49.200;9.242;2022-09-14T03:18:43;3.75;;;2.90;;
7255;SDS011;3669;49.200;9.242;2022-09-14T03:21:11;3.90;;;3.08;;
7255;SDS011;3669;49.200;9.242;2022-09-14T03:23:55;6.55;;;5.95;;
7255;SDS011;3669;49.200;9.242;2022-09-14T03:26:24;4.50;;;2.88;;
7255;SDS011;3669;49.200;9.242;2022-09-14T03:28:56;4.78;;;4.40;;
7255;SDS011;3669;49.200;9.242;2022-09-14T03:34:25;16.00;;;15.02;;
7255;SDS011;3669;49.200;9.242;2022-09-14T03:36:56;7.03;;;6.60;;
7255;SDS011;3669;49.200;9.242;2022-09-14T03:39:25;4.47;;;2.90;;
7255;SDS011;3669;49.200;9.242;2022-09-14T03:41:53;3.00;;;2.80;;
7255;SDS011;3669;49.200;9.242;2022-09-14T03:44:22;3.95;;;3.17;;
7255;SDS011;3669;49.200;9.242;2022-09-14T03:46:50;3.78;;;3.25;;
7255;SDS011;3669;49.200;9.242;2022-09-14T03:49:21;3.22;;;2.83;;
7255;SDS011;3669;49.200;9.242;2022-09-14T03:51:52;3.95;;;3.00;;
7255;SDS011;3669;49.200;9.242;2022-09-14T03:54:58;17.17;;;16.30;;
7255;SDS011;3669;49.200;9.242;2022-09-14T03:57:25;3.70;;;3.38;;
7255;SDS011;3669;49.200;9.242;2022-09-14T03:59:55;5.05;;;2.90;;
7255;SDS011;3669;49.200;9.242;2022-09-14T04:02:24;3.75;;;3.00;;
7255;SDS011;3669;49.200;9.242;2022-09-14T04:04:52;3.92;;;3.22;;
7255;SDS011;3669;49.200;9.242;2022-09-14T04:07:20;3.42;;;3.13;;
7255;SDS011;3669;49.200;9.242;2022-09-14T04:10:29;17.80;;;16.75;;
7255;SDS011;3669;49.200;9.242;2022-09-14T04:12:57;5.65;;;5.22;;
7255;SDS011;3669;49.200;9.242;2022-09-14T04:15:26;4.15;;;3.50;;
7255;SDS011;3669;49.200;9.242;2022-09-14T04:17:54;3.30;;;2.60;;
7255;SDS011;3669;49.200;9.242;2022-09-14T04:20:24;3.47;;;2.90;;
7255;SDS011;3669;49.200;9.242;2022-09-14T04:22:53;3.15;;;2.80;;
7255;SDS011;3669;49.200;9.242;2022-09-14T04:25:51;17.35;;;16.52;;
7255;SDS011;3669;49.200;9.242;2022-09-14T04:28:20;9.70;;;9.07;;
7255;SDS011;3669;49.200;9.242;2022-09-14T04:30:55;4.78;;;4.43;;
7255;SDS011;3669;49.200;9.242;2022-09-14T04:33:44;28.02;;;26.70;;
7255;SDS011;3669;49.200;9.242;2022-09-14T04:36:28;10.43;;;9.82;;
7255;SDS011;3669;49.200;9.242;2022-09-14T04:38:57;15.75;;;14.95;;
7255;SDS011;3669;49.200;9.242;2022-09-14T04:41:25;10.32;;;9.75;;
7255;SDS011;3669;49.200;9.242;2022-09-14T04:43:53;5.97;;;5.50;;
7255;SDS011;3669;49.200;9.242;2022-09-14T04:46:22;3.42;;;2.65;;
7255;SDS011;3669;49.200;9.242;2022-09-14T04:48:53;3.30;;;3.00;;
7255;SDS011;3669;49.200;9.242;2022-09-14T04:51:50;15.63;;;14.65;;
7255;SDS011;3669;49.200;9.242;2022-09-14T04:54:19;8.70;;;8.20;;
7255;SDS011;3669;49.200;9.242;2022-09-14T04:56:50;4.05;;;3.00;;
7255;SDS011;3669;49.200;9.242;2022-09-14T04:59:18;3.33;;;3.03;;
7255;SDS011;3669;49.200;9.242;2022-09-14T05:02:13;15.13;;;14.33;;
7255;SDS011;3669;49.200;9.242;2022-09-14T05:04:43;10.95;;;10.27;;
7255;SDS011;3669;49.200;9.242;2022-09-14T05:10:20;4.07;;;2.95;;
7255;SDS011;3669;49.200;9.242;2022-09-14T05:15:49;4.90;;;4.53;;
7255;SDS011;3669;49.200;9.242;2022-09-14T05:18:22;4.45;;;3.72;;
7255;SDS011;3669;49.200;9.242;2022-09-14T05:20:50;4.35;;;3.03;;
7255;SDS011;3669;49.200;9.242;2022-09-14T05:23:18;3.85;;;3.30;;
7255;SDS011;3669;49.200;9.242;2022-09-14T05:26:22;7.55;;;7.03;;
7255;SDS011;3669;49.200;9.242;2022-09-14T05:28:51;14.05;;;13.27;;
7255;SDS011;3669;49.200;9.242;2022-09-14T05:31:20;17.40;;;16.50;;
7255;SDS011;3669;49.200;9.242;2022-09-14T05:33:49;7.00;;;6.57;;
7255;SDS011;3669;49.200;9.242;2022-09-14T05:36:25;6.50;;;6.00;;
7255;SDS011;3669;49.200;9.242;2022-09-14T05:38:55;5.57;;;3.30;;
7255;SDS011;3669;49.200;9.242;2022-09-14T05:41:27;3.90;;;3.45;;
7255;SDS011;3669;49.200;9.242;2022-09-14T05:43:56;4.20;;;3.80;;
7255;SDS011;3669;49.200;9.242;2022-09-14T05:47:04;12.32;;;11.68;;
7255;SDS011;3669;49.200;9.242;2022-09-14T05:49:32;13.15;;;12.45;;
7255;SDS011;3669;49.200;9.242;2022-09-14T05:54:44;3.75;;;3.10;;
7255;SDS011;3669;49.200;9.242;2022-09-14T05:57:12;3.63;;;3.10;;
7255;SDS011;3669;49.200;9.242;2022-09-14T05:59:52;4.45;;;3.90;;
7255;SDS011;3669;49.200;9.242;2022-09-14T06:02:23;3.83;;;3.38;;
7255;SDS011;3669;49.200;9.242;2022-09-14T06:04:54;3.53;;;3.22;;
7255;SDS011;3669;49.200;9.242;2022-09-14T06:07:22;3.97;;;3.28;;
7255;SDS011;3669;49.200;9.242;2022-09-14T06:10:18;4.15;;;3.35;;
7255;SDS011;3669;49.200;9.242;2022-09-14T06:12:48;3.78;;;3.28;;
7255;SDS011;3669;49.200;9.242;2022-09-14T06:15:16;4.00;;;3.60;;
7255;SDS011;3669;49.200;9.242;2022-09-14T06:19:37;4.45;;;3.40;;
7255;SDS011;3669;49.200;9.242;2022-09-14T06:26:14;8.48;;;7.97;;
7255;SDS011;3669;49.200;9.242;2022-09-14T06:28:46;5.68;;;5.20;;
7255;SDS011;3669;49.200;9.242;2022-09-14T06:34:01;6.57;;;6.03;;
7255;SDS011;3669;49.200;9.242;2022-09-14T06:36:31;3.75;;;3.40;;
7255;SDS011;3669;49.200;9.242;2022-09-14T06:39:43;3.67;;;3.35;;
7255;SDS011;3669;49.200;9.242;2022-09-14T06:42:14;3.50;;;3.20;;
7255;SDS011;3669;49.200;9.242;2022-09-14T06:44:43;4.80;;;3.28;;
7255;SDS011;3669;49.200;9.242;2022-09-14T06:48:13;4.38;;;3.70;;
7255;SDS011;3669;49.200;9.242;2022-09-14T06:53:02;10.85;;;10.18;;
7255;SDS011;3669;49.200;9.242;2022-09-14T06:55:30;3.67;;;3.10;;
7255;SDS011;3669;49.200;9.242;2022-09-14T06:57:59;3.50;;;3.20;;
7255;SDS011;3669;49.200;9.242;2022-09-14T07:03:45;8.15;;;7.65;;
7255;SDS011;3669;49.200;9.242;2022-09-14T07:08:51;3.85;;;3.50;;
7255;SDS011;3669;49.200;9.242;2022-09-14T07:11:20;4.22;;;3.33;;
7255;SDS011;3669;49.200;9.242;2022-09-14T07:13:50;4.13;;;3.55;;
7255;SDS011;3669;49.200;9.242;2022-09-14T07:16:20;3.78;;;3.20;;
7255;SDS011;3669;49.200;9.242;2022-09-14T07:19:32;10.00;;;9.35;;
7255;SDS011;3669;49.200;9.242;2022-09-14T07:22:02;4.13;;;3.65;;
7255;SDS011;3669;49.200;9.242;2022-09-14T07:24:30;3.92;;;3.60;;
7255;SDS011;3669;49.200;9.242;2022-09-14T07:26:58;3.90;;;3.50;;
7255;SDS011;3669;49.200;9.242;2022-09-14T07:29:29;5.15;;;3.20;;
7255;SDS011;3669;49.200;9.242;2022-09-14T07:31:57;3.92;;;3.53;;
7255;SDS011;3669;49.200;9.242;2022-09-14T07:34:33;4.20;;;3.67;;
7255;SDS011;3669;49.200;9.242;2022-09-14T07:37:03;5.38;;;3.40;;
7255;SDS011;3669;49.200;9.242;2022-09-14T07:39:30;3.55;;;3.25;;
7255;SDS011;3669;49.200;9.242;2022-09-14T07:42:52;4.10;;;3.17;;
7255;SDS011;3669;49.200;9.242;2022-09-14T07:45:23;3.90;;;3.45;;
7255;SDS011;3669;49.200;9.242;2022-09-14T07:48:17;5.50;;;5.03;;
7255;SDS011;3669;49.200;9.242;2022-09-14T07:50:57;3.88;;;3.50;;
7255;SDS011;3669;49.200;9.242;2022-09-14T07:53:28;4.88;;;3.42;;
7255;SDS011;3669;49.200;9.242;2022-09-14T07:56:01;4.53;;;3.65;;
7255;SDS011;3669;49.200;9.242;2022-09-14T07:58:32;3.95;;;3.58;;
7255;SDS011;3669;49.200;9.242;2022-09-14T08:01:07;4.40;;;3.95;;
7255;SDS011;3669;49.200;9.242;2022-09-14T08:04:05;4.03;;;3.55;;
7255;SDS011;3669;49.200;9.242;2022-09-14T08:06:34;4.22;;;3.80;;
7255;SDS011;3669;49.200;9.242;2022-09-14T08:09:04;3.88;;;3.53;;
7255;SDS011;3669;49.200;9.242;2022-09-14T08:12:03;4.20;;;3.80;;
7255;SDS011;3669;49.200;9.242;2022-09-14T08:14:34;5.55;;;4.05;;
7255;SDS011;3669;49.200;9.242;2022-09-14T08:17:04;5.55;;;5.20;;
7255;SDS011;3669;49.200;9.242;2022-09-14T08:19:42;3.67;;;3.40;;
7255;SDS011;3669;49.200;9.242;2022-09-14T08:22:14;5.10;;;4.20;;
7255;SDS011;3669;49.200;9.242;2022-09-14T08:25:25;10.43;;;9.82;;
7255;SDS011;3669;49.200;9.242;2022-09-14T08:30:27;7.38;;;6.85;;
7255;SDS011;3669;49.200;9.242;2022-09-14T08:33:00;4.90;;;4.43;;
7255;SDS011;3669;49.200;9.242;2022-09-14T08:35:42;4.30;;;4.00;;
7255;SDS011;3669;49.200;9.242;2022-09-14T08:38:16;4.20;;;3.90;;
7255;SDS011;3669;49.200;9.242;2022-09-14T08:40:50;4.88;;;4.38;;
7255;SDS011;3669;49.200;9.242;2022-09-14T08:43:24;5.65;;;4.60;;
7255;SDS011;3669;49.200;9.242;2022-09-14T08:45:54;4.78;;;4.30;;
7255;SDS011;3669;49.200;9.242;2022-09-14T08:48:34;5.88;;;5.05;;
7255;SDS011;3669;49.200;9.242;2022-09-14T08:51:02;5.40;;;5.00;;
7255;SDS011;3669;49.200;9.242;2022-09-14T08:53:29;5.32;;;4.82;;
7255;SDS011;3669;49.200;9.242;2022-09-14T08:55:59;5.95;;;5.00;;
7255;SDS011;3669;49.200;9.242;2022-09-14T08:58:37;7.45;;;6.00;;
7255;SDS011;3669;49.200;9.242;2022-09-14T09:01:22;6.65;;;5.88;;
7255;SDS011;3669;49.200;9.242;2022-09-14T09:04:09;6.03;;;5.53;;
7255;SDS011;3669;49.200;9.242;2022-09-14T09:11:45;5.85;;;5.35;;
7255;SDS011;3669;49.200;9.242;2022-09-14T09:14:21;7.18;;;5.97;;
7255;SDS011;3669;49.200;9.242;2022-09-14T09:16:50;5.82;;;5.32;;
7255;SDS011;3669;49.200;9.242;2022-09-14T09:19:40;6.20;;;5.70;;
7255;SDS011;3669;49.200;9.242;2022-09-14T09:22:11;6.22;;;5.68;;
7255;SDS011;3669;49.200;9.242;2022-09-14T09:24:44;5.85;;;5.25;;
7255;SDS011;3669;49.200;9.242;2022-09-14T09:27:13;5.63;;;5.13;;
7255;SDS011;3669;49.200;9.242;2022-09-14T09:29:41;5.90;;;5.40;;
7255;SDS011;3669;49.200;9.242;2022-09-14T09:32:17;6.53;;;5.80;;
7255;SDS011;3669;49.200;9.242;2022-09-14T09:34:45;6.82;;;5.85;;
7255;SDS011;3669;49.200;9.242;2022-09-14T09:37:16;5.82;;;5.32;;
7255;SDS011;3669;49.200;9.242;2022-09-14T09:39:43;6.68;;;6.05;;
7255;SDS011;3669;49.200;9.242;2022-09-14T09:42:28;8.02;;;6.28;;
7255;SDS011;3669;49.200;9.242;2022-09-14T09:45:00;5.95;;;5.40;;
7255;SDS011;3669;49.200;9.242;2022-09-14T09:47:34;6.25;;;5.72;;
7255;SDS011;3669;49.200;9.242;2022-09-14T09:50:04;6.57;;;5.97;;
7255;SDS011;3669;49.200;9.242;2022-09-14T09:52:31;6.45;;;5.80;;
7255;SDS011;3669;49.200;9.242;2022-09-14T09:54:59;7.20;;;6.05;;
7255;SDS011;3669;49.200;9.242;2022-09-14T09:57:27;15.07;;;13.98;;
7255;SDS011;3669;49.200;9.242;2022-09-14T10:02:40;29.42;;;27.95;;
7255;SDS011;3669;49.200;9.242;2022-09-14T10:07:50;6.35;;;5.60;;
7255;SDS011;3669;49.200;9.242;2022-09-14T10:10:19;5.60;;;5.13;;
7255;SDS011;3669;49.200;9.242;2022-09-14T10:12:47;5.70;;;5.10;;
7255;SDS011;3669;49.200;9.242;2022-09-14T10:15:29;5.90;;;5.30;;
7255;SDS011;3669;49.200;9.242;2022-09-14T10:18:04;5.68;;;5.18;;
7255;SDS011;3669;49.200;9.242;2022-09-14T10:20:36;6.50;;;5.43;;
7255;SDS011;3669;49.200;9.242;2022-09-14T10:23:15;5.60;;;5.10;;
7255;SDS011;3669;49.200;9.242;2022-09-14T10:25:50;5.45;;;4.95;;
7255;SDS011;3669;49.200;9.242;2022-09-14T10:30:50;5.05;;;4.65;;
7255;SDS011;3669;49.200;9.242;2022-09-14T10:33:20;11.57;;;10.73;;
7255;SDS011;3669;49.200;9.242;2022-09-14T10:38:41;6.00;;;4.88;;
7255;SDS011;3669;49.200;9.242;2022-09-14T10:43:50;4.82;;;4.43;;
7255;SDS011;3669;49.200;9.242;2022-09-14T10:46:20;4.97;;;4.43;;
7255;SDS011;3669;49.200;9.242;2022-09-14T11:01:56;4.85;;;4.45;;
7255;SDS011;3669;49.200;9.242;2022-09-14T11:10:03;5.32;;;4.80;;
7255;SDS011;3669;49.200;9.242;2022-09-14T11:12:39;4.82;;;4.32;;
7255;SDS011;3669;49.200;9.242;2022-09-14T11:23:21;31.08;;;29.48;;
7255;SDS011;3669;49.200;9.242;2022-09-14T11:26:07;39.35;;;37.22;;
7255;SDS011;3669;49.200;9.242;2022-09-14T11:28:38;21.45;;;20.35;;
7255;SDS011;3669;49.200;9.242;2022-09-14T11:33:42;30.23;;;28.75;;
7255;SDS011;3669;49.200;9.242;2022-09-14T11:36:17;36.08;;;34.40;;
7255;SDS011;3669;49.200;9.242;2022-09-14T11:38:55;18.45;;;17.38;;
7255;SDS011;3669;49.200;9.242;2022-09-14T11:44:09;19.13;;;18.10;;
7255;SDS011;3669;49.200;9.242;2022-09-14T11:46:40;23.42;;;22.13;;
7255;SDS011;3669;49.200;9.242;2022-09-14T11:49:13;12.05;;;11.35;;
7255;SDS011;3669;49.200;9.242;2022-09-14T11:52:32;5.13;;;4.22;;
7255;SDS011;3669;49.200;9.242;2022-09-14T11:54:39;14.40;;;13.55;;
7255;SDS011;3669;49.200;9.242;2022-09-14T11:57:06;19.77;;;18.70;;
7255;SDS011;3669;49.200;9.242;2022-09-14T12:12:42;4.50;;;3.90;;
7255;SDS011;3669;49.200;9.242;2022-09-14T12:15:17;4.32;;;3.55;;
7255;SDS011;3669;49.200;9.242;2022-09-14T12:17:48;4.85;;;3.70;;
7255;SDS011;3669;49.200;9.242;2022-09-14T12:22:46;33.13;;;31.38;;
7255;SDS011;3669;49.200;9.242;2022-09-14T12:25:15;18.95;;;17.80;;
7255;SDS011;3669;49.200;9.242;2022-09-14T12:27:44;4.03;;;3.55;;
7255;SDS011;3669;49.200;9.242;2022-09-14T12:32:58;4.10;;;3.70;;
7255;SDS011;3669;49.200;9.242;2022-09-14T12:40:50;16.70;;;15.73;;
7255;SDS011;3669;49.200;9.242;2022-09-14T12:44:03;10.55;;;9.85;;
7255;SDS011;3669;49.200;9.242;2022-09-14T13:04:16;7.32;;;6.80;;
7255;SDS011;3669;49.200;9.242;2022-09-14T13:06:47;4.60;;;3.65;;
7255;SDS011;3669;49.200;9.242;2022-09-14T13:09:17;16.13;;;15.27;;
7255;SDS011;3669;49.200;9.242;2022-09-14T13:11:45;24.75;;;23.48;;
7255;SDS011;3669;49.200;9.242;2022-09-14T13:14:22;24.00;;;22.75;;
7255;SDS011;3669;49.200;9.242;2022-09-14T13:16:50;40.95;;;39.00;;
7255;SDS011;3669;49.200;9.242;2022-09-14T13:19:18;13.73;;;12.80;;
7255;SDS011;3669;49.200;9.242;2022-09-14T13:21:46;3.75;;;3.40;;
7255;SDS011;3669;49.200;9.242;2022-09-14T13:24:30;4.13;;;3.72;;
7255;SDS011;3669;49.200;9.242;2022-09-14T13:26:59;4.05;;;3.60;;
7255;SDS011;3669;49.200;9.242;2022-09-14T13:29:27;4.30;;;3.72;;
7255;SDS011;3669;49.200;9.242;2022-09-14T13:41:11;4.85;;;3.38;;
7255;SDS011;3669;49.200;9.242;2022-09-14T13:43:40;3.85;;;3.40;;
7255;SDS011;3669;49.200;9.242;2022-09-14T13:46:07;4.05;;;3.17;;
7255;SDS011;3669;49.200;9.242;2022-09-14T13:48:36;4.93;;;3.35;;
7255;SDS011;3669;49.200;9.242;2022-09-14T13:51:05;4.20;;;3.03;;
7255;SDS011;3669;49.200;9.242;2022-09-14T13:53:49;4.10;;;2.70;;
7255;SDS011;3669;49.200;9.242;2022-09-14T13:56:33;4.97;;;2.80;;
7255;SDS011;3669;49.200;9.242;2022-09-14T14:01:52;4.10;;;2.67;;
7255;SDS011;3669;49.200;9.242;2022-09-14T14:07:02;4.82;;;2.80;;
7255;SDS011;3669;49.200;9.242;2022-09-14T14:14:54;3.75;;;2.55;;
7255;SDS011;3669;49.200;9.242;2022-09-14T14:17:23;31.85;;;30.08;;
7255;SDS011;3669;49.200;9.242;2022-09-14T14:19:51;4.10;;;2.47;;
7255;SDS011;3669;49.200;9.242;2022-09-14T14:22:19;3.72;;;2.40;;
7255;SDS011;3669;49.200;9.242;2022-09-14T14:24:47;3.28;;;2.22;;
7255;SDS011;3669;49.200;9.242;2022-09-14T14:27:31;2.17;;;2.00;;
7255;SDS011;3669;49.200;9.242;2022-09-14T14:30:00;3.75;;;2.33;;
7255;SDS011;3669;49.200;9.242;2022-09-14T14:32:27;3.30;;;2.67;;
7255;SDS011;3669;49.200;9.242;2022-09-14T14:34:56;3.42;;;2.35;;
7255;SDS011;3669;49.200;9.242;2022-09-14T14:37:26;3.35;;;2.20;;
7255;SDS011;3669;49.200;9.242;2022-09-14T14:39:53;3.33;;;2.40;;
7255;SDS011;3669;49.200;9.242;2022-09-14T14:42:26;4.05;;;2.25;;
7255;SDS011;3669;49.200;9.242;2022-09-14T14:44:55;4.22;;;2.38;;
7255;SDS011;3669;49.200;9.242;2022-09-14T14:47:22;2.72;;;1.98;;
7255;SDS011;3669;49.200;9.242;2022-09-14T14:49:49;3.58;;;2.00;;
7255;SDS011;3669;49.200;9.242;2022-09-14T14:52:16;2.97;;;2.30;;
7255;SDS011;3669;49.200;9.242;2022-09-14T14:54:43;3.33;;;2.42;;
7255;SDS011;3669;49.200;9.242;2022-09-14T14:57:10;3.42;;;1.90;;
7255;SDS011;3669;49.200;9.242;2022-09-14T14:59:38;3.30;;;2.17;;
7255;SDS011;3669;49.200;9.242;2022-09-14T15:02:05;3.00;;;2.03;;
7255;SDS011;3669;49.200;9.242;2022-09-14T15:04:32;3.13;;;2.08;;
7255;SDS011;3669;49.200;9.242;2022-09-14T15:06:59;3.85;;;2.13;;
7255;SDS011;3669;49.200;9.242;2022-09-14T15:09:27;2.03;;;1.92;;
7255;SDS011;3669;49.200;9.242;2022-09-14T15:11:54;2.15;;;1.90;;
7255;SDS011;3669;49.200;9.242;2022-09-14T15:14:22;3.20;;;2.10;;
7255;SDS011;3669;49.200;9.242;2022-09-14T15:16:50;3.20;;;1.80;;
7255;SDS011;3669;49.200;9.242;2022-09-14T15:19:19;2.70;;;1.90;;
7255;SDS011;3669;49.200;9.242;2022-09-14T15:21:47;2.22;;;1.80;;
7255;SDS011;3669;49.200;9.242;2022-09-14T15:24:14;3.15;;;1.80;;
7255;SDS011;3669;49.200;9.242;2022-09-14T15:26:41;2.47;;;1.90;;
7255;SDS011;3669;49.200;9.242;2022-09-14T15:29:08;4.15;;;3.80;;
7255;SDS011;3669;49.200;9.242;2022-09-14T15:31:38;2.20;;;2.00;;
7255;SDS011;3669;49.200;9.242;2022-09-14T15:34:05;2.25;;;2.05;;
7255;SDS011;3669;49.200;9.242;2022-09-14T15:36:36;3.30;;;1.95;;
7255;SDS011;3669;49.200;9.242;2022-09-14T15:39:04;2.38;;;1.73;;
7255;SDS011;3669;49.200;9.242;2022-09-14T15:41:32;2.00;;;1.80;;
7255;SDS011;3669;49.200;9.242;2022-09-14T15:43:59;2.20;;;2.00;;
7255;SDS011;3669;49.200;9.242;2022-09-14T15:46:26;2.28;;;1.92;;
7255;SDS011;3669;49.200;9.242;2022-09-14T15:48:53;1.70;;;1.60;;
7255;SDS011;3669;49.200;9.242;2022-09-14T15:51:20;1.88;;;1.50;;
7255;SDS011;3669;49.200;9.242;2022-09-14T15:53:47;2.75;;;1.77;;
7255;SDS011;3669;49.200;9.242;2022-09-14T15:56:16;1.92;;;1.70;;
7255;SDS011;3669;49.200;9.242;2022-09-14T15:58:43;1.95;;;1.70;;
7255;SDS011;3669;49.200;9.242;2022-09-14T16:01:11;8.85;;;8.30;;
7255;SDS011;3669;49.200;9.242;2022-09-14T16:03:38;11.88;;;11.20;;
7255;SDS011;3669;49.200;9.242;2022-09-14T16:06:11;14.90;;;14.07;;
7255;SDS011;3669;49.200;9.242;2022-09-14T16:08:38;8.45;;;8.05;;
7255;SDS011;3669;49.200;9.242;2022-09-14T16:11:06;14.32;;;13.60;;
7255;SDS011;3669;49.200;9.242;2022-09-14T16:13:33;24.10;;;23.02;;
7255;SDS011;3669;49.200;9.242;2022-09-14T16:16:07;20.23;;;19.20;;
7255;SDS011;3669;49.200;9.242;2022-09-14T16:18:35;18.23;;;17.23;;
7255;SDS011;3669;49.200;9.242;2022-09-14T16:21:06;21.42;;;20.38;;
7255;SDS011;3669;49.200;9.242;2022-09-14T16:23:34;18.35;;;17.35;;
7255;SDS011;3669;49.200;9.242;2022-09-14T16:26:07;22.05;;;20.98;;
7255;SDS011;3669;49.200;9.242;2022-09-14T16:28:35;10.30;;;9.55;;
7255;SDS011;3669;49.200;9.242;2022-09-14T16:31:08;23.50;;;22.27;;
7255;SDS011;3669;49.200;9.242;2022-09-14T16:33:38;11.60;;;10.95;;
7255;SDS011;3669;49.200;9.242;2022-09-14T16:36:07;12.50;;;11.95;;
7255;SDS011;3669;49.200;9.242;2022-09-14T16:38:34;10.85;;;10.35;;
7255;SDS011;3669;49.200;9.242;2022-09-14T16:41:01;9.23;;;8.80;;
7255;SDS011;3669;49.200;9.242;2022-09-14T16:43:30;23.13;;;22.02;;
7255;SDS011;3669;49.200;9.242;2022-09-14T16:48:30;22.05;;;20.92;;
7255;SDS011;3669;49.200;9.242;2022-09-14T16:50:58;16.80;;;16.00;;
7255;SDS011;3669;49.200;9.242;2022-09-14T16:53:27;21.27;;;20.23;;
7255;SDS011;3669;49.200;9.242;2022-09-14T16:56:07;21.70;;;20.65;;
7255;SDS011;3669;49.200;9.242;2022-09-14T16:58:35;4.93;;;4.53;;
7255;SDS011;3669;49.200;9.242;2022-09-14T17:01:11;11.45;;;10.93;;
7255;SDS011;3669;49.200;9.242;2022-09-14T17:03:38;1.67;;;1.50;;
7255;SDS011;3669;49.200;9.242;2022-09-14T17:06:07;2.65;;;2.45;;
7255;SDS011;3669;49.200;9.242;2022-09-14T17:08:34;7.93;;;7.53;;
7255;SDS011;3669;49.200;9.242;2022-09-14T17:11:02;16.10;;;15.25;;
7255;SDS011;3669;49.200;9.242;2022-09-14T17:13:29;19.67;;;18.67;;
7255;SDS011;3669;49.200;9.242;2022-09-14T17:16:00;21.65;;;20.55;;
7255;SDS011;3669;49.200;9.242;2022-09-14T17:18:27;24.02;;;22.92;;
7255;SDS011;3669;49.200;9.242;2022-09-14T17:20:54;13.00;;;12.40;;
7255;SDS011;3669;49.200;9.242;2022-09-14T17:23:21;1.60;;;1.50;;
7255;SDS011;3669;49.200;9.242;2022-09-14T17:25:48;2.28;;;1.60;;
7255;SDS011;3669;49.200;9.242;2022-09-14T17:28:15;2.22;;;1.60;;
7255;SDS011;3669;49.200;9.242;2022-09-14T17:30:42;1.95;;;1.70;;
7255;SDS011;3669;49.200;9.242;2022-09-14T17:33:10;1.60;;;1.23;;
7255;SDS011;3669;49.200;9.242;2022-09-14T17:35:37;2.10;;;1.73;;
7255;SDS011;3669;49.200;9.242;2022-09-14T17:38:04;1.80;;;1.70;;
7255;SDS011;3669;49.200;9.242;2022-09-14T17:40:31;1.70;;;1.60;;
7255;SDS011;3669;49.200;9.242;2022-09-14T17:42:58;2.20;;;1.60;;
7255;SDS011;3669;49.200;9.242;2022-09-14T17:45:25;1.70;;;1.60;;
7255;SDS011;3669;49.200;9.242;2022-09-14T17:47:52;1.73;;;1.60;;
7255;SDS011;3669;49.200;9.242;2022-09-14T17:50:19;1.40;;;1.30;;
7255;SDS011;3669;49.200;9.242;2022-09-14T17:52:48;1.80;;;1.70;;
7255;SDS011;3669;49.200;9.242;2022-09-14T17:55:17;1.60;;;1.50;;
7255;SDS011;3669;49.200;9.242;2022-09-14T17:57:44;2.20;;;1.70;;
7255;SDS011;3669;49.200;9.242;2022-09-14T18:00:11;2.40;;;1.80;;
7255;SDS011;3669;49.200;9.242;2022-09-14T18:02:39;1.80;;;1.70;;
7255;SDS011;3669;49.200;9.242;2022-09-14T18:05:07;1.73;;;1.60;;
7255;SDS011;3669;49.200;9.242;2022-09-14T18:07:34;1.92;;;1.80;;
7255;SDS011;3669;49.200;9.242;2022-09-14T18:10:01;2.88;;;1.73;;
7255;SDS011;3669;49.200;9.242;2022-09-14T18:12:31;1.70;;;1.60;;
7255;SDS011;3669;49.200;9.242;2022-09-14T18:14:59;2.92;;;1.77;;
7255;SDS011;3669;49.200;9.242;2022-09-14T18:17:26;5.70;;;5.40;;
7255;SDS011;3669;49.200;9.242;2022-09-14T18:19:54;1.95;;;1.85;;
7255;SDS011;3669;49.200;9.242;2022-09-14T18:22:30;2.08;;;1.70;;
7255;SDS011;3669;49.200;9.242;2022-09-14T18:24:57;1.92;;;1.70;;
7255;SDS011;3669;49.200;9.242;2022-09-14T18:27:24;1.80;;;1.70;;
7255;SDS011;3669;49.200;9.242;2022-09-14T18:29:51;1.95;;;1.70;;
7255;SDS011;3669;49.200;9.242;2022-09-14T18:32:18;1.90;;;1.70;;
7255;SDS011;3669;49.200;9.242;2022-09-14T18:34:45;1.73;;;1.63;;
7255;SDS011;3669;49.200;9.242;2022-09-14T18:37:12;1.92;;;1.60;;
7255;SDS011;3669;49.200;9.242;2022-09-14T18:39:39;2.00;;;1.70;;
7255;SDS011;3669;49.200;9.242;2022-09-14T18:42:07;2.38;;;1.80;;
7255;SDS011;3669;49.200;9.242;2022-09-14T18:44:35;1.83;;;1.73;;